Startpagina
METAR-TAF:

METAR-TAF

Vliegvelden :

Luchthaven Tolmatsjovo

Novosibirsk, Rusland

breedte: 55-01N, lengte: 082-38E, hoogte: 111 m

Actueel weer

Dit bericht is 27 minuten geleden gemaakt, om 21:30 UTC
Wind 4 kt uit het zuidzuidoosten
Temperatuur 18°C
Vochtigheid 83%
Druk 1003 hPa
Zicht 10 km of meer
Verspreide wolken op 6000 ft, Cumulonimbus.

METAR: UNNT 172130Z 16002MPS 9999 SCT060CB 18/15 Q1003 R25/090070 R34/090070 NOSIG RMK QFE742/0990

Tijdstip: 04:57 (21:57 UTC)

Verwachting

Dit bericht is 1 uur en het 57 minuten geleden gemaakt, om 20:00 UTC
Verwachting geldig van 17 om 21 UTC tot 18 om 21 UTC
Wind 6 kt uit het oosten met uitschieters tot 16 kt
Zicht 10 km of meer
Gebroken wolken op 3000 ft, Cumulonimbus.
Tijdelijke
van 17 om 21 UTC tot 18 om 03 UTC
Zicht: 0600 m
Gebroken wolken op 500 ft
Gebroken wolken op 1100 ft, Cumulonimbus.
onweer, lichte regen, mist

TAF: UNNT 172000Z 1721/1821 08003G08MPS 9999 BKN030CB TEMPO 1721/1803 0600 -TSRA FG BKN005 BKN011CB

Waarnemingen en weersverwachtingen van meer dan 4000 vliegvelden (METAR en TAF).

De beschikbare stations zijn de gele en rode punten op de kaart.

Ga met uw muis naar het station om de naam te zien.

Klik dan om waarnemingen en weersverwachtingen te zien.

kaart wijzigen: klik op de groene knoppen met een zwart kruis om in te zoomen, op de groene knop met een streepje om uit te zoomen of op de groene pijlen voor aangrenzende kaarten.


METAR-TAF: